sensor_id;sensor_type;location;lat;lon;timestamp;pressure;altitude;pressure_sealevel;temperature;humidity
10978;BME280;5542;48.272;10.794;2023-04-22T00:00:59;95168.09;;;11.38;68.08
10978;BME280;5542;48.272;10.794;2023-04-22T00:03:26;95179.31;;;11.28;68.09
10978;BME280;5542;48.272;10.794;2023-04-22T00:05:54;95177.78;;;11.11;68.71
10978;BME280;5542;48.272;10.794;2023-04-22T00:08:21;95181.25;;;10.94;69.65
10978;BME280;5542;48.272;10.794;2023-04-22T00:10:48;95181.28;;;10.77;70.11
10978;BME280;5542;48.272;10.794;2023-04-22T00:13:14;95180.03;;;10.63;70.45
10978;BME280;5542;48.272;10.794;2023-04-22T00:15:41;95180.22;;;10.57;70.97
10978;BME280;5542;48.272;10.794;2023-04-22T00:18:07;95168.66;;;10.58;71.31
10978;BME280;5542;48.272;10.794;2023-04-22T00:20:38;95165.09;;;10.64;71.49
10978;BME280;5542;48.272;10.794;2023-04-22T00:23:06;95170.69;;;10.72;71.33
10978;BME280;5542;48.272;10.794;2023-04-22T00:25:33;95171.34;;;10.80;71.16
10978;BME280;5542;48.272;10.794;2023-04-22T00:27:59;95165.75;;;10.76;71.21
10978;BME280;5542;48.272;10.794;2023-04-22T00:30:26;95169.91;;;10.72;71.20
10978;BME280;5542;48.272;10.794;2023-04-22T00:32:52;95162.75;;;10.67;71.32
10978;BME280;5542;48.272;10.794;2023-04-22T00:35:19;95159.91;;;10.69;71.45
10978;BME280;5542;48.272;10.794;2023-04-22T00:37:45;95157.81;;;10.71;71.67
10978;BME280;5542;48.272;10.794;2023-04-22T00:40:13;95152.59;;;10.76;71.42
10978;BME280;5542;48.272;10.794;2023-04-22T00:42:42;95161.28;;;10.76;71.38
10978;BME280;5542;48.272;10.794;2023-04-22T00:45:10;95160.03;;;10.79;71.01
10978;BME280;5542;48.272;10.794;2023-04-22T00:47:37;95157.16;;;10.81;70.74
10978;BME280;5542;48.272;10.794;2023-04-22T00:50:04;95150.56;;;10.78;70.38
10978;BME280;5542;48.272;10.794;2023-04-22T00:52:31;95156.03;;;10.76;70.83
10978;BME280;5542;48.272;10.794;2023-04-22T00:54:57;95156.69;;;10.67;70.73
10978;BME280;5542;48.272;10.794;2023-04-22T00:57:28;95156.56;;;10.57;71.26
10978;BME280;5542;48.272;10.794;2023-04-22T00:59:55;95160.22;;;10.56;71.79
10978;BME280;5542;48.272;10.794;2023-04-22T01:02:22;95157.34;;;10.57;71.67
10978;BME280;5542;48.272;10.794;2023-04-22T01:04:49;95157.03;;;10.54;71.96
10978;BME280;5542;48.272;10.794;2023-04-22T01:07:18;95157.53;;;10.50;72.25
10978;BME280;5542;48.272;10.794;2023-04-22T01:09:46;95155.44;;;10.52;72.18
10978;BME280;5542;48.272;10.794;2023-04-22T01:12:13;95154.91;;;10.50;72.37
10978;BME280;5542;48.272;10.794;2023-04-22T01:14:41;95157.28;;;10.52;72.29
10978;BME280;5542;48.272;10.794;2023-04-22T01:17:08;95158.31;;;10.51;72.32
10978;BME280;5542;48.272;10.794;2023-04-22T01:19:37;95164.06;;;10.48;72.51
10978;BME280;5542;48.272;10.794;2023-04-22T01:22:04;95158.78;;;10.48;72.51
10978;BME280;5542;48.272;10.794;2023-04-22T01:24:33;95162.22;;;10.48;72.45
10978;BME280;5542;48.272;10.794;2023-04-22T01:27:00;95165.09;;;10.47;72.50
10978;BME280;5542;48.272;10.794;2023-04-22T01:29:27;95165.63;;;10.49;72.50
10978;BME280;5542;48.272;10.794;2023-04-22T01:31:54;95163.56;;;10.51;72.40
10978;BME280;5542;48.272;10.794;2023-04-22T01:34:20;95166.94;;;10.46;72.40
10978;BME280;5542;48.272;10.794;2023-04-22T01:36:47;95158.97;;;10.41;72.51
10978;BME280;5542;48.272;10.794;2023-04-22T01:39:14;95159.38;;;10.33;73.01
10978;BME280;5542;48.272;10.794;2023-04-22T01:41:42;95165.66;;;10.32;72.90
10978;BME280;5542;48.272;10.794;2023-04-22T01:44:08;95165.19;;;10.35;72.92
10978;BME280;5542;48.272;10.794;2023-04-22T01:46:35;95161.75;;;10.35;72.81
10978;BME280;5542;48.272;10.794;2023-04-22T01:49:01;95164.44;;;10.23;72.91
10978;BME280;5542;48.272;10.794;2023-04-22T01:51:28;95167.31;;;10.21;73.31
10978;BME280;5542;48.272;10.794;2023-04-22T01:53:56;95164.91;;;10.20;73.18
10978;BME280;5542;48.272;10.794;2023-04-22T01:56:23;95165.94;;;10.19;73.42
10978;BME280;5542;48.272;10.794;2023-04-22T01:58:50;95162.78;;;10.17;73.59
10978;BME280;5542;48.272;10.794;2023-04-22T02:01:17;95177.44;;;10.13;73.78
10978;BME280;5542;48.272;10.794;2023-04-22T02:03:43;95176.94;;;10.16;73.83
10978;BME280;5542;48.272;10.794;2023-04-22T02:06:10;95175.13;;;10.16;73.94
10978;BME280;5542;48.272;10.794;2023-04-22T02:08:37;95175.84;;;10.12;73.94
10978;BME280;5542;48.272;10.794;2023-04-22T02:11:03;95172.09;;;10.08;74.09
10978;BME280;5542;48.272;10.794;2023-04-22T02:13:34;95178.28;;;10.01;74.34
10978;BME280;5542;48.272;10.794;2023-04-22T02:16:02;95168.50;;;9.97;74.66
10978;BME280;5542;48.272;10.794;2023-04-22T02:18:28;95178.75;;;9.98;74.54
10978;BME280;5542;48.272;10.794;2023-04-22T02:20:55;95178.44;;;9.95;74.77
10978;BME280;5542;48.272;10.794;2023-04-22T02:23:21;95180.03;;;9.96;74.90
10978;BME280;5542;48.272;10.794;2023-04-22T02:25:48;95178.75;;;9.98;74.48
10978;BME280;5542;48.272;10.794;2023-04-22T02:28:15;95179.22;;;9.95;74.48
10978;BME280;5542;48.272;10.794;2023-04-22T02:30:42;95177.41;;;9.96;74.02
10978;BME280;5542;48.272;10.794;2023-04-22T02:33:10;95172.06;;;9.91;74.48
10978;BME280;5542;48.272;10.794;2023-04-22T02:35:37;95174.06;;;9.84;74.83
10978;BME280;5542;48.272;10.794;2023-04-22T02:38:03;95172.94;;;9.80;75.06
10978;BME280;5542;48.272;10.794;2023-04-22T02:40:30;95166.38;;;9.82;74.89
10978;BME280;5542;48.272;10.794;2023-04-22T02:42:56;95170.53;;;9.78;75.09
10978;BME280;5542;48.272;10.794;2023-04-22T02:45:23;95174.97;;;9.78;74.88
10978;BME280;5542;48.272;10.794;2023-04-22T02:47:50;95172.59;;;9.76;74.95
10978;BME280;5542;48.272;10.794;2023-04-22T02:50:17;95167.34;;;9.76;74.81
10978;BME280;5542;48.272;10.794;2023-04-22T02:52:45;95166.00;;;9.73;75.16
10978;BME280;5542;48.272;10.794;2023-04-22T02:55:11;95169.63;;;9.72;75.11
10978;BME280;5542;48.272;10.794;2023-04-22T02:57:38;95173.63;;;9.75;74.82
10978;BME280;5542;48.272;10.794;2023-04-22T03:00:06;95175.69;;;9.73;75.09
10978;BME280;5542;48.272;10.794;2023-04-22T03:02:34;95174.09;;;9.72;75.22
10978;BME280;5542;48.272;10.794;2023-04-22T03:05:01;95170.34;;;9.68;75.37
10978;BME280;5542;48.272;10.794;2023-04-22T03:07:29;95168.22;;;9.65;75.65
10978;BME280;5542;48.272;10.794;2023-04-22T03:09:55;95173.13;;;9.61;75.40
10978;BME280;5542;48.272;10.794;2023-04-22T03:12:23;95178.03;;;9.58;75.69
10978;BME280;5542;48.272;10.794;2023-04-22T03:14:50;95179.53;;;9.54;75.49
10978;BME280;5542;48.272;10.794;2023-04-22T03:17:16;95176.38;;;9.52;75.77
10978;BME280;5542;48.272;10.794;2023-04-22T03:19:43;95173.28;;;9.55;75.71
10978;BME280;5542;48.272;10.794;2023-04-22T03:22:10;95174.88;;;9.56;75.53
10978;BME280;5542;48.272;10.794;2023-04-22T03:24:38;95172.00;;;9.57;75.45
10978;BME280;5542;48.272;10.794;2023-04-22T03:27:05;95173.81;;;9.57;75.15
10978;BME280;5542;48.272;10.794;2023-04-22T03:29:31;95166.66;;;9.52;75.42
10978;BME280;5542;48.272;10.794;2023-04-22T03:32:00;95167.34;;;9.47;75.33
10978;BME280;5542;48.272;10.794;2023-04-22T03:34:26;95163.47;;;9.50;75.16
10978;BME280;5542;48.272;10.794;2023-04-22T03:36:53;95164.97;;;9.46;75.19
10978;BME280;5542;48.272;10.794;2023-04-22T03:39:19;95159.47;;;9.47;74.85
10978;BME280;5542;48.272;10.794;2023-04-22T03:41:47;95162.19;;;9.53;74.41
10978;BME280;5542;48.272;10.794;2023-04-22T03:44:16;95156.91;;;9.36;74.90
10978;BME280;5542;48.272;10.794;2023-04-22T03:46:42;95159.56;;;9.24;75.32
10978;BME280;5542;48.272;10.794;2023-04-22T03:49:09;95143.19;;;9.17;75.38
10978;BME280;5542;48.272;10.794;2023-04-22T03:51:36;95151.50;;;9.14;75.66
10978;BME280;5542;48.272;10.794;2023-04-22T03:54:03;95152.53;;;9.13;75.66
10978;BME280;5542;48.272;10.794;2023-04-22T03:56:30;95154.03;;;9.09;76.23
10978;BME280;5542;48.272;10.794;2023-04-22T03:58:59;95154.03;;;9.09;76.34
10978;BME280;5542;48.272;10.794;2023-04-22T04:01:25;95161.34;;;8.95;76.78
10978;BME280;5542;48.272;10.794;2023-04-22T04:03:52;95155.66;;;8.86;77.17
10978;BME280;5542;48.272;10.794;2023-04-22T04:06:19;95167.97;;;8.86;77.54
10978;BME280;5542;48.272;10.794;2023-04-22T04:08:46;95153.84;;;8.87;77.62
10978;BME280;5542;48.272;10.794;2023-04-22T04:11:12;95157.63;;;8.79;78.19
10978;BME280;5542;48.272;10.794;2023-04-22T04:13:39;95166.06;;;8.81;78.04
10978;BME280;5542;48.272;10.794;2023-04-22T04:16:07;95170.50;;;8.81;78.09
10978;BME280;5542;48.272;10.794;2023-04-22T04:18:34;95171.28;;;8.81;77.84
10978;BME280;5542;48.272;10.794;2023-04-22T04:21:01;95161.03;;;8.80;77.82
10978;BME280;5542;48.272;10.794;2023-04-22T04:23:27;95163.31;;;8.76;78.20
10978;BME280;5542;48.272;10.794;2023-04-22T04:25:54;95169.13;;;8.78;78.45
10978;BME280;5542;48.272;10.794;2023-04-22T04:28:21;95164.81;;;8.72;78.95
10978;BME280;5542;48.272;10.794;2023-04-22T04:30:47;95165.94;;;8.76;78.93
10978;BME280;5542;48.272;10.794;2023-04-22T04:33:15;95164.25;;;8.70;78.85
10978;BME280;5542;48.272;10.794;2023-04-22T04:35:42;95156.72;;;8.74;78.54
10978;BME280;5542;48.272;10.794;2023-04-22T04:38:09;95157.28;;;8.76;78.84
10978;BME280;5542;48.272;10.794;2023-04-22T04:40:36;95154.31;;;8.72;78.98
10978;BME280;5542;48.272;10.794;2023-04-22T04:43:02;95157.03;;;8.77;79.54
10978;BME280;5542;48.272;10.794;2023-04-22T04:45:32;95152.84;;;8.76;79.27
10978;BME280;5542;48.272;10.794;2023-04-22T04:48:00;95151.59;;;8.79;79.57
10978;BME280;5542;48.272;10.794;2023-04-22T04:50:28;95150.66;;;8.85;79.66
10978;BME280;5542;48.272;10.794;2023-04-22T04:52:55;95148.94;;;8.90;79.42
10978;BME280;5542;48.272;10.794;2023-04-22T04:55:22;95152.94;;;8.93;79.31
10978;BME280;5542;48.272;10.794;2023-04-22T04:57:49;95156.47;;;8.98;79.50
10978;BME280;5542;48.272;10.794;2023-04-22T05:00:16;95162.34;;;9.06;79.48
10978;BME280;5542;48.272;10.794;2023-04-22T05:02:42;95160.63;;;9.11;79.43
10978;BME280;5542;48.272;10.794;2023-04-22T05:05:09;95173.16;;;9.21;78.85
10978;BME280;5542;48.272;10.794;2023-04-22T05:07:37;95166.88;;;9.22;78.75
10978;BME280;5542;48.272;10.794;2023-04-22T05:10:05;95168.94;;;9.20;78.93
10978;BME280;5542;48.272;10.794;2023-04-22T05:12:32;95167.09;;;9.20;79.11
10978;BME280;5542;48.272;10.794;2023-04-22T05:14:58;95174.84;;;9.27;79.44
10978;BME280;5542;48.272;10.794;2023-04-22T05:17:25;95179.88;;;9.29;79.82
10978;BME280;5542;48.272;10.794;2023-04-22T05:19:52;95194.56;;;9.30;80.03
10978;BME280;5542;48.272;10.794;2023-04-22T05:22:18;95192.53;;;9.32;80.38
10978;BME280;5542;48.272;10.794;2023-04-22T05:24:46;95197.63;;;9.38;80.33
10978;BME280;5542;48.272;10.794;2023-04-22T05:27:13;95196.13;;;9.42;80.50
10978;BME280;5542;48.272;10.794;2023-04-22T05:29:40;95189.31;;;9.41;81.22
10978;BME280;5542;48.272;10.794;2023-04-22T05:32:07;95192.97;;;9.40;81.49
10978;BME280;5542;48.272;10.794;2023-04-22T05:34:34;95198.31;;;9.45;81.86
10978;BME280;5542;48.272;10.794;2023-04-22T05:37:03;95196.31;;;9.53;82.10
10978;BME280;5542;48.272;10.794;2023-04-22T05:39:30;95202.16;;;9.55;82.53
10978;BME280;5542;48.272;10.794;2023-04-22T05:41:58;95197.31;;;9.63;82.89
10978;BME280;5542;48.272;10.794;2023-04-22T05:44:25;95200.78;;;9.81;82.66
10978;BME280;5542;48.272;10.794;2023-04-22T05:46:51;95197.53;;;9.90;81.64
10978;BME280;5542;48.272;10.794;2023-04-22T05:49:18;95190.94;;;10.05;81.66
10978;BME280;5542;48.272;10.794;2023-04-22T05:51:44;95196.16;;;10.16;81.35
10978;BME280;5542;48.272;10.794;2023-04-22T05:54:11;95203.66;;;10.41;79.75
10978;BME280;5542;48.272;10.794;2023-04-22T05:56:38;95201.50;;;10.38;78.79
10978;BME280;5542;48.272;10.794;2023-04-22T05:59:06;95204.34;;;10.54;78.14
10978;BME280;5542;48.272;10.794;2023-04-22T06:01:32;95201.97;;;10.69;77.89
10978;BME280;5542;48.272;10.794;2023-04-22T06:03:59;95201.72;;;10.70;76.89
10978;BME280;5542;48.272;10.794;2023-04-22T06:06:26;95201.47;;;10.72;76.63
10978;BME280;5542;48.272;10.794;2023-04-22T06:08:52;95201.25;;;10.73;76.52
10978;BME280;5542;48.272;10.794;2023-04-22T06:11:19;95204.91;;;10.72;77.11
10978;BME280;5542;48.272;10.794;2023-04-22T06:13:46;95198.63;;;10.73;77.35
10978;BME280;5542;48.272;10.794;2023-04-22T06:16:14;95196.84;;;10.79;77.53
10978;BME280;5542;48.272;10.794;2023-04-22T06:18:41;95200.34;;;10.85;77.59
10978;BME280;5542;48.272;10.794;2023-04-22T06:21:08;95191.53;;;10.96;77.31
10978;BME280;5542;48.272;10.794;2023-04-22T06:23:35;95192.09;;;10.98;77.68
10978;BME280;5542;48.272;10.794;2023-04-22T06:26:02;95201.91;;;11.02;77.19
10978;BME280;5542;48.272;10.794;2023-04-22T06:28:29;95204.59;;;11.08;77.41
10978;BME280;5542;48.272;10.794;2023-04-22T06:30:55;95199.94;;;11.15;77.28
10978;BME280;5542;48.272;10.794;2023-04-22T06:33:38;95203.75;;;11.24;76.38
10978;BME280;5542;48.272;10.794;2023-04-22T06:36:05;95198.91;;;11.38;75.98
10978;BME280;5542;48.272;10.794;2023-04-22T06:38:41;95203.13;;;11.61;76.21
10978;BME280;5542;48.272;10.794;2023-04-22T06:41:08;95203.00;;;11.99;73.90
10978;BME280;5542;48.272;10.794;2023-04-22T06:43:36;95204.31;;;12.29;73.01
10978;BME280;5542;48.272;10.794;2023-04-22T06:46:03;95195.66;;;12.71;69.74
10978;BME280;5542;48.272;10.794;2023-04-22T06:48:30;95204.06;;;13.10;69.88
10978;BME280;5542;48.272;10.794;2023-04-22T06:50:58;95199.00;;;13.46;67.45
10978;BME280;5542;48.272;10.794;2023-04-22T06:53:25;95199.13;;;13.87;66.70
10978;BME280;5542;48.272;10.794;2023-04-22T06:55:52;95205.78;;;14.30;63.78
10978;BME280;5542;48.272;10.794;2023-04-22T06:58:20;95201.31;;;14.51;60.97
10978;BME280;5542;48.272;10.794;2023-04-22T07:00:46;95209.00;;;14.68;60.14
10978;BME280;5542;48.272;10.794;2023-04-22T07:03:13;95198.88;;;14.90;60.95
10978;BME280;5542;48.272;10.794;2023-04-22T07:05:40;95198.25;;;15.34;59.79
10978;BME280;5542;48.272;10.794;2023-04-22T07:08:08;95191.25;;;15.64;59.05
10978;BME280;5542;48.272;10.794;2023-04-22T07:10:36;95188.13;;;16.40;58.57
10978;BME280;5542;48.272;10.794;2023-04-22T07:13:02;95183.44;;;16.90;55.80
10978;BME280;5542;48.272;10.794;2023-04-22T07:15:29;95192.19;;;17.20;54.69
10978;BME280;5542;48.272;10.794;2023-04-22T07:17:56;95186.66;;;17.40;53.14
10978;BME280;5542;48.272;10.794;2023-04-22T07:20:23;95184.97;;;17.68;49.34
10978;BME280;5542;48.272;10.794;2023-04-22T07:22:50;95183.41;;;17.67;48.90
10978;BME280;5542;48.272;10.794;2023-04-22T07:25:18;95178.41;;;17.60;48.04
10978;BME280;5542;48.272;10.794;2023-04-22T07:27:45;95180.03;;;17.99;49.39
10978;BME280;5542;48.272;10.794;2023-04-22T07:30:12;95180.84;;;18.19;47.84
10978;BME280;5542;48.272;10.794;2023-04-22T07:32:38;95179.13;;;18.28;46.61
10978;BME280;5542;48.272;10.794;2023-04-22T07:35:06;95174.00;;;18.12;45.85
10978;BME280;5542;48.272;10.794;2023-04-22T07:37:32;95178.38;;;17.84;47.42
10978;BME280;5542;48.272;10.794;2023-04-22T07:39:59;95177.19;;;17.77;49.31
10978;BME280;5542;48.272;10.794;2023-04-22T07:42:29;95176.19;;;18.10;49.66
10978;BME280;5542;48.272;10.794;2023-04-22T07:44:55;95178.19;;;18.51;47.53
10978;BME280;5542;48.272;10.794;2023-04-22T07:47:22;95180.28;;;18.54;47.48
10978;BME280;5542;48.272;10.794;2023-04-22T07:49:49;95178.84;;;18.62;45.98
10978;BME280;5542;48.272;10.794;2023-04-22T07:52:15;95183.66;;;18.92;46.97
10978;BME280;5542;48.272;10.794;2023-04-22T07:54:43;95187.53;;;19.00;47.47
10978;BME280;5542;48.272;10.794;2023-04-22T07:57:10;95182.81;;;19.38;46.39
10978;BME280;5542;48.272;10.794;2023-04-22T07:59:38;95182.81;;;19.52;44.62
10978;BME280;5542;48.272;10.794;2023-04-22T08:02:04;95181.31;;;19.74;46.29
10978;BME280;5542;48.272;10.794;2023-04-22T08:04:31;95171.06;;;20.03;44.16
10978;BME280;5542;48.272;10.794;2023-04-22T08:06:57;95172.94;;;20.03;44.46
10978;BME280;5542;48.272;10.794;2023-04-22T08:09:27;95164.09;;;20.16;42.47
10978;BME280;5542;48.272;10.794;2023-04-22T08:11:54;95159.63;;;20.25;42.00
10978;BME280;5542;48.272;10.794;2023-04-22T08:14:20;95166.34;;;20.00;42.57
10978;BME280;5542;48.272;10.794;2023-04-22T08:16:50;95170.09;;;19.99;43.71
10978;BME280;5542;48.272;10.794;2023-04-22T08:19:17;95172.91;;;19.80;43.19
10978;BME280;5542;48.272;10.794;2023-04-22T08:21:44;95168.25;;;19.86;44.99
10978;BME280;5542;48.272;10.794;2023-04-22T08:24:11;95167.78;;;19.70;43.05
10978;BME280;5542;48.272;10.794;2023-04-22T08:26:37;95171.94;;;19.49;43.08
10978;BME280;5542;48.272;10.794;2023-04-22T08:29:05;95174.28;;;19.23;44.19
10978;BME280;5542;48.272;10.794;2023-04-22T08:31:32;95177.47;;;19.52;46.34
10978;BME280;5542;48.272;10.794;2023-04-22T08:34:00;95167.97;;;19.74;44.20
10978;BME280;5542;48.272;10.794;2023-04-22T08:36:27;95160.63;;;19.93;42.70
10978;BME280;5542;48.272;10.794;2023-04-22T08:38:53;95169.56;;;20.47;43.75
10978;BME280;5542;48.272;10.794;2023-04-22T08:41:26;95156.69;;;20.13;42.70
10978;BME280;5542;48.272;10.794;2023-04-22T08:43:54;95172.31;;;20.19;44.80
10978;BME280;5542;48.272;10.794;2023-04-22T08:46:21;95162.69;;;20.55;41.36
10978;BME280;5542;48.272;10.794;2023-04-22T08:48:50;95166.97;;;20.42;43.56
10978;BME280;5542;48.272;10.794;2023-04-22T08:51:18;95169.50;;;20.61;41.83
10978;BME280;5542;48.272;10.794;2023-04-22T08:53:45;95162.03;;;20.49;41.41
10978;BME280;5542;48.272;10.794;2023-04-22T08:56:12;95169.84;;;20.68;40.68
10978;BME280;5542;48.272;10.794;2023-04-22T08:58:40;95166.00;;;20.83;39.94
10978;BME280;5542;48.272;10.794;2023-04-22T09:01:07;95166.06;;;20.69;41.91
10978;BME280;5542;48.272;10.794;2023-04-22T09:03:37;95162.31;;;20.70;42.28
10978;BME280;5542;48.272;10.794;2023-04-22T09:06:05;95159.22;;;20.77;39.98
10978;BME280;5542;48.272;10.794;2023-04-22T09:08:34;95166.06;;;20.69;43.21
10978;BME280;5542;48.272;10.794;2023-04-22T09:11:02;95155.88;;;20.71;41.33
10978;BME280;5542;48.272;10.794;2023-04-22T09:13:29;95153.31;;;20.97;41.41
10978;BME280;5542;48.272;10.794;2023-04-22T09:15:56;95142.91;;;21.27;39.78
10978;BME280;5542;48.272;10.794;2023-04-22T09:18:22;95148.13;;;20.92;38.96
10978;BME280;5542;48.272;10.794;2023-04-22T09:20:53;95141.09;;;20.74;39.60
10978;BME280;5542;48.272;10.794;2023-04-22T09:23:21;95151.84;;;20.51;42.35
10978;BME280;5542;48.272;10.794;2023-04-22T09:25:49;95142.53;;;20.71;41.19
10978;BME280;5542;48.272;10.794;2023-04-22T09:28:17;95141.94;;;20.83;39.98
10978;BME280;5542;48.272;10.794;2023-04-22T09:30:45;95127.84;;;20.91;37.32
10978;BME280;5542;48.272;10.794;2023-04-22T09:33:12;95132.53;;;20.85;38.75
10978;BME280;5542;48.272;10.794;2023-04-22T09:35:40;95130.31;;;20.87;37.82
10978;BME280;5542;48.272;10.794;2023-04-22T09:38:09;95136.41;;;20.79;38.03
10978;BME280;5542;48.272;10.794;2023-04-22T09:40:37;95137.56;;;20.87;39.07
10978;BME280;5542;48.272;10.794;2023-04-22T09:43:08;95134.34;;;21.07;36.61
10978;BME280;5542;48.272;10.794;2023-04-22T09:45:36;95126.91;;;21.35;34.59
10978;BME280;5542;48.272;10.794;2023-04-22T09:48:07;95141.72;;;21.50;37.92
10978;BME280;5542;48.272;10.794;2023-04-22T09:50:34;95131.69;;;21.64;38.40
10978;BME280;5542;48.272;10.794;2023-04-22T09:53:04;95127.78;;;21.88;36.87
10978;BME280;5542;48.272;10.794;2023-04-22T09:55:33;95124.34;;;22.05;38.75
10978;BME280;5542;48.272;10.794;2023-04-22T09:58:04;95124.31;;;22.57;35.64
10978;BME280;5542;48.272;10.794;2023-04-22T10:00:34;95118.47;;;22.55;35.64
10978;BME280;5542;48.272;10.794;2023-04-22T10:03:02;95110.94;;;22.31;34.30
10978;BME280;5542;48.272;10.794;2023-04-22T10:05:28;95113.94;;;21.77;38.47
10978;BME280;5542;48.272;10.794;2023-04-22T10:07:56;95110.47;;;22.03;37.90
10978;BME280;5542;48.272;10.794;2023-04-22T10:10:23;95115.69;;;22.34;36.91
10978;BME280;5542;48.272;10.794;2023-04-22T10:12:50;95105.56;;;22.48;36.40
10978;BME280;5542;48.272;10.794;2023-04-22T10:15:17;95104.84;;;22.86;36.28
10978;BME280;5542;48.272;10.794;2023-04-22T10:17:46;95098.88;;;22.71;32.92
10978;BME280;5542;48.272;10.794;2023-04-22T10:20:16;95100.03;;;22.62;33.31
10978;BME280;5542;48.272;10.794;2023-04-22T10:22:44;95096.53;;;22.70;30.17
10978;BME280;5542;48.272;10.794;2023-04-22T10:25:12;95094.56;;;22.88;31.95
10978;BME280;5542;48.272;10.794;2023-04-22T10:27:40;95092.25;;;22.69;30.37
10978;BME280;5542;48.272;10.794;2023-04-22T10:30:09;95095.97;;;22.47;31.13
10978;BME280;5542;48.272;10.794;2023-04-22T10:32:36;95095.97;;;22.47;32.76
10978;BME280;5542;48.272;10.794;2023-04-22T10:35:09;95096.31;;;22.37;31.13
10978;BME280;5542;48.272;10.794;2023-04-22T10:37:40;95102.44;;;22.29;32.81
10978;BME280;5542;48.272;10.794;2023-04-22T10:40:09;95094.41;;;22.20;29.93
10978;BME280;5542;48.272;10.794;2023-04-22T10:42:39;95099.63;;;22.16;30.64
10978;BME280;5542;48.272;10.794;2023-04-22T10:45:11;95099.63;;;22.16;30.50
10978;BME280;5542;48.272;10.794;2023-04-22T10:47:38;95103.06;;;21.99;31.80
10978;BME280;5542;48.272;10.794;2023-04-22T10:50:21;95099.59;;;21.82;30.69
10978;BME280;5542;48.272;10.794;2023-04-22T10:52:50;95096.94;;;21.90;31.51
10978;BME280;5542;48.272;10.794;2023-04-22T10:55:18;95092.66;;;21.98;32.70
10978;BME280;5542;48.272;10.794;2023-04-22T10:57:46;95084.34;;;21.99;29.18
10978;BME280;5542;48.272;10.794;2023-04-22T11:00:37;95084.97;;;22.05;30.74
10978;BME280;5542;48.272;10.794;2023-04-22T11:03:08;95086.84;;;21.61;29.66
10978;BME280;5542;48.272;10.794;2023-04-22T11:05:38;95095.00;;;21.47;30.79
10978;BME280;5542;48.272;10.794;2023-04-22T11:08:06;95098.16;;;21.50;30.82
10978;BME280;5542;48.272;10.794;2023-04-22T11:10:35;95091.22;;;21.48;30.65
10978;BME280;5542;48.272;10.794;2023-04-22T11:13:06;95094.72;;;21.58;31.21
10978;BME280;5542;48.272;10.794;2023-04-22T11:15:35;95093.00;;;21.70;31.03
10978;BME280;5542;48.272;10.794;2023-04-22T11:18:03;95093.63;;;21.67;30.61
10978;BME280;5542;48.272;10.794;2023-04-22T11:20:33;95089.84;;;21.68;32.11
10978;BME280;5542;48.272;10.794;2023-04-22T11:23:01;95084.47;;;21.68;31.61
10978;BME280;5542;48.272;10.794;2023-04-22T11:25:28;95083.69;;;21.59;29.83
10978;BME280;5542;48.272;10.794;2023-04-22T11:27:55;95081.97;;;21.63;31.42
10978;BME280;5542;48.272;10.794;2023-04-22T11:30:23;95078.81;;;21.87;31.41
10978;BME280;5542;48.272;10.794;2023-04-22T11:32:52;95073.00;;;21.94;32.39
10978;BME280;5542;48.272;10.794;2023-04-22T11:35:20;95081.50;;;21.96;31.14
10978;BME280;5542;48.272;10.794;2023-04-22T11:37:52;95083.09;;;21.80;30.81
10978;BME280;5542;48.272;10.794;2023-04-22T11:40:22;95076.78;;;21.67;30.80
10978;BME280;5542;48.272;10.794;2023-04-22T11:42:50;95073.63;;;21.65;29.97
10978;BME280;5542;48.272;10.794;2023-04-22T11:45:17;95073.47;;;21.53;31.46
10978;BME280;5542;48.272;10.794;2023-04-22T11:47:44;95077.94;;;21.26;32.47
10978;BME280;5542;48.272;10.794;2023-04-22T11:50:12;95082.97;;;21.19;33.40
10978;BME280;5542;48.272;10.794;2023-04-22T11:52:48;95077.56;;;21.02;33.43
10978;BME280;5542;48.272;10.794;2023-04-22T11:55:16;95076.66;;;21.15;33.41
10978;BME280;5542;48.272;10.794;2023-04-22T11:57:52;95076.94;;;21.05;33.54
10978;BME280;5542;48.272;10.794;2023-04-22T12:00:19;95079.00;;;21.16;33.04
10978;BME280;5542;48.272;10.794;2023-04-22T12:02:54;95070.19;;;21.07;33.24
10978;BME280;5542;48.272;10.794;2023-04-22T12:05:31;95065.50;;;21.21;31.50
10978;BME280;5542;48.272;10.794;2023-04-22T12:07:59;95057.63;;;21.25;31.57
10978;BME280;5542;48.272;10.794;2023-04-22T12:10:26;95063.31;;;21.23;31.73
10978;BME280;5542;48.272;10.794;2023-04-22T12:12:54;95060.84;;;21.36;30.72
10978;BME280;5542;48.272;10.794;2023-04-22T12:15:21;95050.69;;;21.15;28.68
10978;BME280;5542;48.272;10.794;2023-04-22T12:17:49;95044.41;;;21.11;27.35
10978;BME280;5542;48.272;10.794;2023-04-22T12:20:15;95049.63;;;21.25;29.96
10978;BME280;5542;48.272;10.794;2023-04-22T12:22:42;95050.63;;;21.38;30.11
10978;BME280;5542;48.272;10.794;2023-04-22T12:25:09;95049.03;;;21.45;29.63
10978;BME280;5542;48.272;10.794;2023-04-22T12:27:35;95036.16;;;21.56;27.64
10978;BME280;5542;48.272;10.794;2023-04-22T12:30:04;95046.41;;;21.71;28.16
10978;BME280;5542;48.272;10.794;2023-04-22T12:32:31;95043.84;;;21.84;25.92
10978;BME280;5542;48.272;10.794;2023-04-22T12:34:58;95042.78;;;21.76;25.13
10978;BME280;5542;48.272;10.794;2023-04-22T12:37:24;95041.19;;;21.84;25.83
10978;BME280;5542;48.272;10.794;2023-04-22T12:39:52;95031.72;;;22.04;22.29
10978;BME280;5542;48.272;10.794;2023-04-22T12:42:19;95028.28;;;21.94;22.04
10978;BME280;5542;48.272;10.794;2023-04-22T12:44:46;95027.16;;;22.04;24.21
10978;BME280;5542;48.272;10.794;2023-04-22T12:47:13;95021.97;;;22.16;23.04
10978;BME280;5542;48.272;10.794;2023-04-22T12:49:42;95024.91;;;22.41;24.23
10978;BME280;5542;48.272;10.794;2023-04-22T12:52:11;95015.19;;;22.28;23.38
10978;BME280;5542;48.272;10.794;2023-04-22T12:54:37;95018.47;;;22.33;24.63
10978;BME280;5542;48.272;10.794;2023-04-22T12:57:04;95028.41;;;22.24;27.11
10978;BME280;5542;48.272;10.794;2023-04-22T12:59:30;95021.31;;;22.28;25.19
10978;BME280;5542;48.272;10.794;2023-04-22T13:01:57;95021.56;;;22.44;26.39
10978;BME280;5542;48.272;10.794;2023-04-22T13:04:25;95027.25;;;22.42;26.97